createdAt,value
2022-08-28T00:00:43.876Z,7.40
2022-08-28T00:01:43.854Z,8.00
2022-08-28T00:02:43.920Z,7.50
2022-08-28T00:03:43.838Z,7.70
2022-08-28T00:04:44.366Z,7.60
2022-08-28T00:05:43.830Z,6.90
2022-08-28T00:06:43.800Z,7.10
2022-08-28T00:07:47.623Z,7.10
2022-08-28T00:08:43.790Z,7.80
2022-08-28T00:09:43.761Z,7.60
2022-08-28T00:10:43.743Z,7.90
2022-08-28T00:11:43.737Z,7.70
2022-08-28T00:12:43.714Z,7.60
2022-08-28T00:13:43.709Z,7.60
2022-08-28T00:14:43.744Z,7.50
2022-08-28T00:15:43.743Z,7.60
2022-08-28T00:16:43.676Z,7.90
2022-08-28T00:17:43.644Z,8.00
2022-08-28T00:18:43.661Z,8.00
2022-08-28T00:19:43.616Z,7.50
2022-08-28T00:20:43.615Z,8.40
2022-08-28T00:21:43.579Z,7.80
2022-08-28T00:22:43.587Z,7.70
2022-08-28T00:23:43.608Z,7.90
2022-08-28T00:24:43.563Z,8.10
2022-08-28T00:25:43.533Z,8.40
2022-08-28T00:26:43.539Z,8.40
2022-08-28T00:27:43.505Z,9.40
2022-08-28T00:28:43.501Z,8.90
2022-08-28T00:29:43.513Z,7.80
2022-08-28T00:30:43.466Z,8.30
2022-08-28T00:31:43.519Z,8.60
2022-08-28T00:32:43.475Z,8.40
2022-08-28T00:33:43.433Z,8.50
2022-08-28T00:34:43.460Z,8.40
2022-08-28T00:35:43.395Z,8.60
2022-08-28T00:36:43.438Z,8.70
2022-08-28T00:37:43.379Z,8.40
2022-08-28T00:38:43.356Z,7.80
2022-08-28T00:39:43.421Z,7.50
2022-08-28T00:40:44.122Z,8.30
2022-08-28T00:41:43.336Z,9.20
2022-08-28T00:42:43.310Z,8.50
2022-08-28T00:43:43.318Z,7.90
2022-08-28T00:44:43.302Z,8.20
2022-08-28T00:45:43.260Z,8.60
2022-08-28T00:46:43.330Z,8.60
2022-08-28T00:47:43.273Z,8.80
2022-08-28T00:48:43.233Z,8.40
2022-08-28T00:49:43.212Z,7.50
2022-08-28T00:50:43.202Z,8.40
2022-08-28T00:51:43.209Z,7.90
2022-08-28T00:52:43.218Z,7.90
2022-08-28T00:53:43.213Z,8.80
2022-08-28T00:54:50.530Z,8.00
2022-08-28T00:55:43.140Z,7.90
2022-08-28T00:56:43.144Z,8.20
2022-08-28T00:57:43.106Z,8.00
2022-08-28T00:58:43.114Z,8.00
2022-08-28T00:59:43.084Z,7.70
2022-08-28T01:00:43.071Z,7.80
2022-08-28T01:01:43.141Z,8.10
2022-08-28T01:02:43.083Z,8.20
2022-08-28T01:03:43.017Z,7.50
2022-08-28T01:04:43.015Z,7.90
2022-08-28T01:05:43.005Z,7.70
2022-08-28T01:06:43.011Z,7.70
2022-08-28T01:07:42.998Z,8.40
2022-08-28T01:08:43.004Z,7.70
2022-08-28T01:09:42.982Z,7.70
2022-08-28T01:10:42.959Z,7.90
2022-08-28T01:11:42.921Z,7.70
2022-08-28T01:12:42.939Z,7.40
2022-08-28T01:13:42.938Z,7.30
2022-08-28T01:14:42.877Z,7.30
2022-08-28T01:15:42.917Z,7.60
2022-08-28T01:16:42.860Z,7.70
2022-08-28T01:17:43.142Z,7.30
2022-08-28T01:18:42.821Z,7.70
2022-08-28T01:19:42.813Z,7.00
2022-08-28T01:20:42.810Z,6.90
2022-08-28T01:21:42.802Z,7.30
2022-08-28T01:22:42.777Z,7.10
2022-08-28T01:23:42.775Z,7.20
2022-08-28T01:24:42.779Z,7.00
2022-08-28T01:25:42.726Z,6.70
2022-08-28T01:26:42.726Z,7.30
2022-08-28T01:27:42.713Z,7.00
2022-08-28T01:28:42.694Z,6.70
2022-08-28T01:29:42.716Z,7.60
2022-08-28T01:30:42.709Z,7.30
2022-08-28T01:31:42.649Z,7.20
2022-08-28T01:32:42.679Z,7.30
2022-08-28T01:33:42.814Z,6.70
2022-08-28T01:34:42.714Z,6.60
2022-08-28T01:35:42.588Z,6.40
2022-08-28T01:36:42.594Z,6.80
2022-08-28T01:37:42.564Z,6.90
2022-08-28T01:38:43.404Z,6.70
2022-08-28T01:39:42.585Z,6.50
2022-08-28T01:40:42.542Z,6.90
2022-08-28T01:41:42.523Z,6.60
2022-08-28T01:42:42.513Z,6.60
2022-08-28T01:43:42.477Z,6.30
2022-08-28T01:44:42.501Z,6.30
2022-08-28T01:45:42.467Z,6.10
2022-08-28T01:46:42.475Z,6.60
2022-08-28T01:47:42.431Z,6.90
2022-08-28T01:48:42.413Z,6.40
2022-08-28T01:49:42.438Z,6.20
2022-08-28T01:50:42.473Z,5.80
2022-08-28T01:51:42.419Z,7.30
2022-08-28T01:52:42.368Z,6.40
2022-08-28T01:53:45.043Z,6.40
2022-08-28T01:54:42.333Z,6.50
2022-08-28T01:55:42.343Z,6.20
2022-08-28T01:56:42.351Z,5.90
2022-08-28T01:57:42.308Z,5.90
2022-08-28T01:58:42.283Z,6.40
2022-08-28T01:59:42.268Z,5.90
2022-08-28T02:00:42.264Z,6.30
2022-08-28T02:01:42.340Z,5.90
2022-08-28T02:02:42.248Z,6.10
2022-08-28T02:03:42.205Z,6.40
2022-08-28T02:04:45.000Z,5.60
2022-08-28T02:05:42.199Z,6.20
2022-08-28T02:06:42.201Z,6.20
2022-08-28T02:07:42.165Z,5.90
2022-08-28T02:08:42.163Z,5.90
2022-08-28T02:09:43.102Z,6.30
2022-08-28T02:10:42.153Z,6.30
2022-08-28T02:11:42.160Z,6.40
2022-08-28T02:12:42.100Z,6.10
2022-08-28T02:13:42.109Z,6.40
2022-08-28T02:14:42.130Z,5.70
2022-08-28T02:15:42.096Z,6.00
2022-08-28T02:16:42.087Z,5.80
2022-08-28T02:17:42.048Z,5.60
2022-08-28T02:18:42.029Z,6.10
2022-08-28T02:19:42.057Z,5.60
2022-08-28T02:20:42.137Z,5.70
2022-08-28T02:21:41.975Z,5.90
2022-08-28T02:22:41.998Z,6.10
2022-08-28T02:23:41.958Z,5.80
2022-08-28T02:24:41.955Z,5.70
2022-08-28T02:25:41.941Z,5.80
2022-08-28T02:26:41.923Z,5.70
2022-08-28T02:27:41.909Z,5.70
2022-08-28T02:28:41.944Z,5.60
2022-08-28T02:29:41.874Z,6.20
2022-08-28T02:30:42.941Z,6.20
2022-08-28T02:31:41.855Z,6.10
2022-08-28T02:32:41.846Z,6.30
2022-08-28T02:33:41.844Z,5.80
2022-08-28T02:34:41.874Z,6.00
2022-08-28T02:35:41.778Z,5.50
2022-08-28T02:36:41.787Z,5.90
2022-08-28T02:37:41.759Z,5.90
2022-08-28T02:38:41.794Z,5.60
2022-08-28T02:39:41.907Z,5.80
2022-08-28T02:40:41.720Z,5.80
2022-08-28T02:41:41.705Z,5.50
2022-08-28T02:42:41.707Z,5.80
2022-08-28T02:43:41.697Z,5.80
2022-08-28T02:44:41.664Z,6.20
2022-08-28T02:45:41.676Z,6.40
2022-08-28T02:46:41.770Z,6.10
2022-08-28T02:47:41.615Z,5.80
2022-08-28T02:48:41.633Z,5.60
2022-08-28T02:49:41.619Z,5.90
2022-08-28T02:50:41.597Z,5.90
2022-08-28T02:51:41.576Z,5.50
2022-08-28T02:52:41.588Z,6.00
2022-08-28T02:53:41.538Z,5.50
2022-08-28T02:54:41.563Z,5.70
2022-08-28T02:55:46.405Z,5.50
2022-08-28T02:56:47.401Z,5.90
2022-08-28T02:57:56.373Z,5.80
2022-08-28T02:58:41.483Z,5.60
2022-08-28T02:59:41.499Z,5.90
2022-08-28T03:00:41.461Z,5.90
2022-08-28T03:01:41.490Z,5.70
2022-08-28T03:02:41.526Z,5.80
2022-08-28T03:03:41.612Z,5.80
2022-08-28T03:04:41.417Z,5.80
2022-08-28T03:05:41.394Z,5.80
2022-08-28T03:06:41.402Z,5.80
2022-08-28T03:07:41.349Z,6.00
2022-08-28T03:08:41.356Z,5.40
2022-08-28T03:09:41.318Z,5.60
2022-08-28T03:10:41.324Z,5.90
2022-08-28T03:11:41.297Z,5.60
2022-08-28T03:15:26.945Z,5.90
2022-08-28T03:17:07.209Z,5.90
2022-08-28T03:17:27.896Z,5.70
2022-08-28T03:18:28.665Z,5.80
2022-08-28T03:19:27.841Z,5.80
2022-08-28T03:20:27.813Z,5.70
2022-08-28T03:21:27.796Z,5.90
2022-08-28T03:22:27.778Z,5.90
2022-08-28T03:23:27.854Z,5.70
2022-08-28T03:24:27.739Z,6.00
2022-08-28T03:25:28.761Z,5.80
2022-08-28T03:26:27.725Z,6.10
2022-08-28T03:27:27.808Z,5.70
2022-08-28T03:28:27.679Z,5.70
2022-08-28T03:29:27.695Z,5.80
2022-08-28T03:30:27.720Z,6.40
2022-08-28T03:31:27.784Z,6.20
2022-08-28T03:32:29.397Z,6.30
2022-08-28T03:33:27.621Z,6.20
2022-08-28T03:34:27.611Z,5.90
2022-08-28T03:35:27.618Z,5.70
2022-08-28T03:37:02.693Z,6.00
2022-08-28T03:37:35.615Z,6.10
2022-08-28T03:38:27.615Z,6.20
2022-08-28T03:39:27.863Z,6.20
2022-08-28T03:40:27.625Z,5.70
2022-08-28T03:41:28.261Z,6.40
2022-08-28T03:42:27.503Z,6.40
2022-08-28T03:43:27.555Z,5.40
2022-08-28T03:44:28.173Z,6.30
2022-08-28T03:45:27.484Z,6.10
2022-08-28T03:46:27.566Z,6.00
2022-08-28T03:47:27.452Z,5.90
2022-08-28T03:48:27.428Z,6.20
2022-08-28T03:49:27.479Z,6.40
2022-08-28T03:50:27.398Z,6.20
2022-08-28T03:51:29.283Z,6.20
2022-08-28T03:52:27.388Z,6.60
2022-08-28T03:53:27.372Z,6.90
2022-08-28T03:54:27.441Z,6.70
2022-08-28T03:55:27.333Z,6.60
2022-08-28T03:56:27.387Z,6.30
2022-08-28T03:57:27.330Z,7.10
2022-08-28T03:58:27.302Z,6.80
2022-08-28T03:59:31.700Z,6.70
2022-08-28T04:00:27.312Z,6.50
2022-08-28T04:01:27.357Z,6.80
2022-08-28T04:02:27.278Z,7.30
2022-08-28T04:03:27.295Z,6.80
2022-08-28T04:04:27.236Z,6.70
2022-08-28T04:05:27.297Z,6.70
2022-08-28T04:06:27.204Z,6.70
2022-08-28T04:07:27.204Z,6.50
2022-08-28T04:08:27.183Z,7.50
2022-08-28T04:09:27.192Z,6.90
2022-08-28T04:10:27.147Z,7.60
2022-08-28T04:11:27.755Z,7.10
2022-08-28T04:12:27.364Z,6.90
2022-08-28T04:13:27.157Z,7.70
2022-08-28T04:14:27.096Z,7.10
2022-08-28T04:15:27.061Z,6.90
2022-08-28T04:16:27.085Z,7.00
2022-08-28T04:17:27.051Z,7.00
2022-08-28T04:18:27.060Z,7.70
2022-08-28T04:19:27.033Z,7.00
2022-08-28T04:20:27.045Z,7.20
2022-08-28T04:21:26.986Z,7.10
2022-08-28T04:22:27.025Z,7.20
2022-08-28T04:23:26.978Z,6.90
2022-08-28T04:24:27.163Z,6.80
2022-08-28T04:25:26.952Z,6.60
2022-08-28T04:26:26.941Z,6.80
2022-08-28T04:27:26.907Z,7.00
2022-08-28T04:28:26.951Z,7.40
2022-08-28T04:29:26.905Z,7.40
2022-08-28T04:30:26.911Z,7.40
2022-08-28T04:31:32.352Z,6.80
2022-08-28T04:32:26.870Z,8.00
2022-08-28T04:33:26.846Z,6.80
2022-08-28T04:34:26.862Z,6.80
2022-08-28T04:35:26.808Z,7.80
2022-08-28T04:36:26.792Z,7.30
2022-08-28T04:37:27.990Z,7.00
2022-08-28T04:38:26.771Z,7.10
2022-08-28T04:39:26.781Z,6.90
2022-08-28T04:40:26.827Z,6.70
2022-08-28T04:41:26.726Z,7.30
2022-08-28T04:42:26.739Z,6.90
2022-08-28T04:43:26.704Z,7.10
2022-08-28T04:44:26.715Z,6.70
2022-08-28T04:45:26.736Z,6.80
2022-08-28T04:46:26.655Z,6.60
2022-08-28T04:47:26.661Z,6.70
2022-08-28T04:48:26.647Z,6.80
2022-08-28T04:49:26.624Z,7.00
2022-08-28T04:50:26.619Z,7.20
2022-08-28T04:51:26.591Z,7.00
2022-08-28T04:52:26.633Z,6.70
2022-08-28T04:53:26.601Z,6.90
2022-08-28T04:54:26.547Z,7.00
2022-08-28T04:55:45.067Z,7.20
2022-08-28T04:56:26.556Z,7.00
2022-08-28T04:57:26.510Z,7.10
2022-08-28T04:58:26.519Z,6.70
2022-08-28T04:59:26.536Z,6.70
2022-08-28T05:00:26.486Z,7.40
2022-08-28T05:01:26.514Z,6.40
2022-08-28T05:02:26.512Z,6.50
2022-08-28T05:03:26.457Z,6.40
2022-08-28T05:04:26.454Z,6.60
2022-08-28T05:05:26.413Z,6.60
2022-08-28T05:06:26.469Z,7.10
2022-08-28T05:07:26.388Z,6.60
2022-08-28T05:08:26.369Z,7.10
2022-08-28T05:09:27.038Z,7.20
2022-08-28T05:10:26.353Z,6.70
2022-08-28T05:11:34.345Z,7.00
2022-08-28T05:12:26.360Z,6.60
2022-08-28T05:13:26.297Z,6.90
2022-08-28T05:14:26.313Z,6.90
2022-08-28T05:15:26.412Z,6.40
2022-08-28T05:16:26.327Z,7.10
2022-08-28T05:17:26.249Z,7.10
2022-08-28T05:18:26.262Z,7.20
2022-08-28T05:19:26.260Z,7.30
2022-08-28T05:20:26.275Z,7.30
2022-08-28T05:21:26.202Z,7.50
2022-08-28T05:22:26.222Z,7.00
2022-08-28T05:23:26.160Z,7.10
2022-08-28T05:24:26.161Z,6.80
2022-08-28T05:25:26.145Z,7.30
2022-08-28T05:26:27.103Z,6.70
2022-08-28T05:27:26.155Z,6.60
2022-08-28T05:28:26.117Z,6.70
2022-08-28T05:29:26.079Z,6.80
2022-08-28T05:30:26.078Z,6.70
2022-08-28T05:31:26.116Z,7.00
2022-08-28T05:32:26.083Z,6.50
2022-08-28T05:33:26.024Z,6.50
2022-08-28T05:34:26.101Z,6.50
2022-08-28T05:35:26.001Z,6.70
2022-08-28T05:36:32.660Z,6.60
2022-08-28T05:37:25.989Z,6.70
2022-08-28T05:38:25.998Z,6.30
2022-08-28T05:39:25.961Z,6.20
2022-08-28T05:40:25.975Z,6.70
2022-08-28T05:41:25.934Z,6.10
2022-08-28T05:42:28.842Z,5.70
2022-08-28T05:43:25.905Z,5.80
2022-08-28T05:44:25.918Z,5.80
2022-08-28T05:45:25.877Z,5.80
2022-08-28T05:46:25.861Z,5.70
2022-08-28T05:47:25.867Z,5.60
2022-08-28T05:48:25.844Z,5.90
2022-08-28T05:49:25.812Z,5.20
2022-08-28T05:50:25.830Z,5.60
2022-08-28T05:51:25.793Z,5.20
2022-08-28T05:52:25.810Z,5.80
2022-08-28T05:53:25.783Z,5.10
2022-08-28T05:54:25.788Z,4.90
2022-08-28T05:55:25.742Z,4.60
2022-08-28T05:56:25.742Z,4.90
2022-08-28T05:57:25.739Z,4.70
2022-08-28T05:58:25.717Z,4.70
2022-08-28T05:59:25.684Z,4.90
2022-08-28T06:00:25.759Z,4.70
2022-08-28T06:01:25.694Z,4.80
2022-08-28T06:02:25.671Z,5.00
2022-08-28T06:03:25.647Z,5.00
2022-08-28T06:04:25.906Z,5.10
2022-08-28T06:05:25.610Z,4.70
2022-08-28T06:06:25.608Z,4.50
2022-08-28T06:07:25.578Z,4.60
2022-08-28T06:08:25.582Z,4.60
2022-08-28T06:09:29.349Z,4.80
2022-08-28T06:10:25.580Z,5.00
2022-08-28T06:11:25.642Z,4.40
2022-08-28T06:12:25.521Z,5.00
2022-08-28T06:13:25.508Z,4.60
2022-08-28T06:14:25.536Z,4.50
2022-08-28T06:15:25.531Z,5.00
2022-08-28T06:16:25.562Z,4.70
2022-08-28T06:17:25.445Z,4.40
2022-08-28T06:18:25.444Z,5.00
2022-08-28T06:19:25.446Z,4.60
2022-08-28T06:20:25.431Z,4.30
2022-08-28T06:21:25.412Z,4.50
2022-08-28T06:22:25.392Z,4.60
2022-08-28T06:23:25.370Z,4.80
2022-08-28T06:24:25.384Z,4.80
2022-08-28T06:25:25.394Z,4.60
2022-08-28T06:26:25.332Z,4.70
2022-08-28T06:27:25.313Z,4.70
2022-08-28T06:28:25.337Z,4.30
2022-08-28T06:29:25.331Z,5.00
2022-08-28T06:30:25.313Z,4.80
2022-08-28T06:31:26.432Z,5.40
2022-08-28T06:32:25.333Z,5.00
2022-08-28T06:33:25.237Z,4.90
2022-08-28T06:34:25.237Z,4.60
2022-08-28T06:35:25.276Z,5.10
2022-08-28T06:36:25.209Z,4.60
2022-08-28T06:37:25.205Z,5.00
2022-08-28T06:38:25.191Z,4.80
2022-08-28T06:39:25.175Z,4.00
2022-08-28T06:40:25.218Z,4.80
2022-08-28T06:41:25.152Z,5.10
2022-08-28T06:42:25.142Z,4.60
2022-08-28T06:43:25.112Z,4.70
2022-08-28T06:44:25.157Z,4.70
2022-08-28T06:45:25.083Z,4.60
2022-08-28T06:46:25.266Z,4.70
2022-08-28T06:47:25.056Z,4.40
2022-08-28T06:48:25.047Z,4.70
2022-08-28T06:49:25.071Z,5.00
2022-08-28T06:50:25.040Z,4.70
2022-08-28T06:51:25.206Z,4.50
2022-08-28T06:52:24.991Z,4.70
2022-08-28T06:53:24.987Z,4.30
2022-08-28T06:54:24.987Z,4.70
2022-08-28T06:55:24.965Z,4.50
2022-08-28T06:56:26.840Z,4.70
2022-08-28T06:57:24.944Z,4.70
2022-08-28T06:58:24.918Z,4.30
2022-08-28T06:59:24.894Z,4.50
2022-08-28T07:00:24.903Z,4.20
2022-08-28T07:01:24.939Z,4.70
2022-08-28T07:02:28.281Z,4.60
2022-08-28T07:03:24.873Z,4.30
2022-08-28T07:04:24.842Z,4.20
2022-08-28T07:05:24.835Z,4.60
2022-08-28T07:06:24.816Z,3.90
2022-08-28T07:07:32.463Z,4.30
2022-08-28T07:08:24.791Z,4.70
2022-08-28T07:09:24.801Z,4.20
2022-08-28T07:10:24.788Z,4.10
2022-08-28T07:11:26.152Z,4.20
2022-08-28T07:12:24.774Z,4.00
2022-08-28T07:13:24.727Z,4.50
2022-08-28T07:14:25.794Z,4.30
2022-08-28T07:15:24.707Z,4.40
2022-08-28T07:16:24.726Z,4.40
2022-08-28T07:17:24.695Z,4.60
2022-08-28T07:18:24.708Z,4.30
2022-08-28T07:19:24.659Z,4.90
2022-08-28T07:20:24.639Z,4.80
2022-08-28T07:21:24.627Z,4.50
2022-08-28T07:22:24.642Z,4.80
2022-08-28T07:23:24.586Z,4.60
2022-08-28T07:24:24.576Z,4.40
2022-08-28T07:25:24.576Z,4.60
2022-08-28T07:26:24.550Z,4.40
2022-08-28T07:27:24.592Z,4.20
2022-08-28T07:28:24.568Z,4.70
2022-08-28T07:29:24.604Z,4.80
2022-08-28T07:30:24.515Z,4.60
2022-08-28T07:31:24.578Z,4.20
2022-08-28T07:32:24.467Z,5.00
2022-08-28T07:33:24.494Z,4.70
2022-08-28T07:34:26.807Z,4.50
2022-08-28T07:35:24.459Z,4.50
2022-08-28T07:36:29.615Z,4.30
2022-08-28T07:37:24.488Z,4.10
2022-08-28T07:38:24.400Z,4.60
2022-08-28T07:39:24.399Z,4.80
2022-08-28T07:40:24.425Z,4.50
2022-08-28T07:41:24.365Z,4.40
2022-08-28T07:42:24.349Z,4.60
2022-08-28T07:43:24.315Z,4.40
2022-08-28T07:44:24.362Z,4.20
2022-08-28T07:45:24.324Z,4.50
2022-08-28T07:46:24.397Z,4.80
2022-08-28T07:47:24.276Z,4.40
2022-08-28T07:48:24.274Z,4.80
2022-08-28T07:49:24.251Z,4.40
2022-08-28T07:50:24.270Z,4.40
2022-08-28T07:51:24.233Z,4.30
2022-08-28T07:52:24.349Z,4.40
2022-08-28T07:53:24.195Z,4.50
2022-08-28T07:54:24.207Z,4.40
2022-08-28T07:55:24.192Z,4.60
2022-08-28T07:56:24.172Z,4.70
2022-08-28T07:57:24.166Z,5.20
2022-08-28T07:58:24.150Z,4.50
2022-08-28T07:59:24.121Z,4.90
2022-08-28T08:00:24.111Z,5.00
2022-08-28T08:01:24.230Z,5.20
2022-08-28T08:02:24.070Z,5.00
2022-08-28T08:03:24.079Z,4.90
2022-08-28T08:04:24.063Z,4.80
2022-08-28T08:05:24.062Z,4.80
2022-08-28T08:06:24.056Z,4.10
2022-08-28T08:07:24.040Z,4.50
2022-08-28T08:08:24.038Z,4.40
2022-08-28T08:09:24.013Z,5.50
2022-08-28T08:10:23.969Z,4.80
2022-08-28T08:11:24.000Z,4.80
2022-08-28T08:12:24.000Z,5.50
2022-08-28T08:13:23.935Z,5.50
2022-08-28T08:14:23.922Z,5.30
2022-08-28T08:15:26.442Z,5.10
2022-08-28T08:16:23.934Z,5.30
2022-08-28T08:17:23.910Z,5.20
2022-08-28T08:18:24.221Z,4.40
2022-08-28T08:19:23.927Z,5.00
2022-08-28T08:20:23.837Z,5.10
2022-08-28T08:21:28.294Z,4.80
2022-08-28T08:22:23.836Z,4.60
2022-08-28T08:23:23.846Z,5.20
2022-08-28T08:24:23.975Z,5.00
2022-08-28T08:25:23.779Z,5.20
2022-08-28T08:26:23.922Z,4.70
2022-08-28T08:27:23.782Z,4.70
2022-08-28T08:28:23.815Z,5.60
2022-08-28T08:29:23.753Z,5.00
2022-08-28T08:30:24.601Z,5.00
2022-08-28T08:31:23.819Z,5.00
2022-08-28T08:32:23.719Z,5.50
2022-08-28T08:33:23.680Z,5.20
2022-08-28T08:34:23.735Z,5.70
2022-08-28T08:35:23.680Z,5.90
2022-08-28T08:36:23.631Z,5.40
2022-08-28T08:37:23.639Z,5.40
2022-08-28T08:38:23.625Z,5.90
2022-08-28T08:39:23.811Z,5.50
2022-08-28T08:40:23.718Z,5.80
2022-08-28T08:41:23.610Z,5.30
2022-08-28T08:42:23.807Z,5.60
2022-08-28T08:43:23.542Z,5.60
2022-08-28T08:44:23.515Z,5.70
2022-08-28T08:45:23.553Z,5.10
2022-08-28T08:46:23.563Z,5.70
2022-08-28T08:47:23.513Z,5.30
2022-08-28T08:48:23.622Z,5.60
2022-08-28T08:49:23.514Z,5.70
2022-08-28T08:50:23.456Z,5.40
2022-08-28T08:51:23.448Z,5.90
2022-08-28T08:52:23.428Z,5.10
2022-08-28T08:53:23.452Z,5.80
2022-08-28T08:54:23.428Z,5.40
2022-08-28T08:55:23.410Z,4.80
2022-08-28T08:56:23.396Z,5.20
2022-08-28T08:57:23.369Z,5.80
2022-08-28T08:58:23.400Z,5.20
2022-08-28T08:59:23.340Z,5.20
2022-08-28T09:00:23.315Z,5.50
2022-08-28T09:01:23.481Z,5.30
2022-08-28T09:02:23.278Z,5.00
2022-08-28T09:03:23.422Z,5.50
2022-08-28T09:04:23.311Z,5.10
2022-08-28T09:05:23.266Z,4.80
2022-08-28T09:06:23.237Z,5.60
2022-08-28T09:07:23.237Z,5.30
2022-08-28T09:08:23.238Z,5.30
2022-08-28T09:09:23.210Z,5.60
2022-08-28T09:10:23.208Z,6.00
2022-08-28T09:11:23.216Z,5.30
2022-08-28T09:12:23.286Z,5.50
2022-08-28T09:13:23.221Z,5.20
2022-08-28T09:14:26.891Z,5.40
2022-08-28T09:15:23.148Z,5.40
2022-08-28T09:16:23.228Z,4.90
2022-08-28T09:17:23.110Z,5.50
2022-08-28T09:18:23.086Z,4.90
2022-08-28T09:19:23.068Z,5.10
2022-08-28T09:20:30.246Z,4.90
2022-08-28T09:21:27.170Z,4.90
2022-08-28T09:22:23.663Z,4.90
2022-08-28T09:23:23.026Z,5.40
2022-08-28T09:24:23.036Z,5.10
2022-08-28T09:25:22.987Z,5.30
2022-08-28T09:26:22.973Z,4.60
2022-08-28T09:27:22.993Z,4.60
2022-08-28T09:28:22.965Z,5.40
2022-08-28T09:29:22.969Z,4.90
2022-08-28T09:30:22.924Z,5.10
2022-08-28T09:31:22.998Z,5.00
2022-08-28T09:32:22.909Z,5.00
2022-08-28T09:33:22.931Z,5.40
2022-08-28T09:34:22.891Z,5.10
2022-08-28T09:35:22.875Z,4.20
2022-08-28T09:36:22.847Z,4.80
2022-08-28T09:37:22.841Z,5.10
2022-08-28T09:38:22.826Z,5.00
2022-08-28T09:39:22.807Z,5.40
2022-08-28T09:40:22.876Z,5.00
2022-08-28T09:41:22.822Z,5.10
2022-08-28T09:42:22.810Z,5.30
2022-08-28T09:43:22.762Z,5.10
2022-08-28T09:44:22.803Z,4.90
2022-08-28T09:45:22.735Z,6.00
2022-08-28T09:46:22.881Z,5.30
2022-08-28T09:47:22.716Z,5.20
2022-08-28T09:48:22.684Z,5.20
2022-08-28T09:49:22.679Z,5.10
2022-08-28T09:50:22.717Z,5.40
2022-08-28T09:51:22.651Z,4.80
2022-08-28T09:52:25.290Z,4.80
2022-08-28T09:53:22.631Z,4.60
2022-08-28T09:54:22.620Z,5.20
2022-08-28T09:55:22.819Z,4.50
2022-08-28T09:56:22.582Z,4.80
2022-08-28T09:57:22.795Z,4.90
2022-08-28T09:58:22.595Z,4.80
2022-08-28T09:59:22.549Z,4.70
2022-08-28T10:00:22.540Z,5.00
2022-08-28T10:01:22.648Z,4.80
2022-08-28T10:02:22.528Z,5.10
2022-08-28T10:03:22.498Z,4.60
2022-08-28T10:04:22.607Z,4.70
2022-08-28T10:05:25.812Z,4.90
2022-08-28T10:06:22.463Z,5.10
2022-08-28T10:07:22.488Z,4.60
2022-08-28T10:08:22.460Z,4.60
2022-08-28T10:09:22.505Z,4.70
2022-08-28T10:10:22.435Z,4.90
2022-08-28T10:11:22.386Z,5.30
2022-08-28T10:12:22.376Z,4.80
2022-08-28T10:13:22.402Z,4.50
2022-08-28T10:14:22.395Z,4.40
2022-08-28T10:15:22.587Z,4.70
2022-08-28T10:16:22.428Z,4.80
2022-08-28T10:17:22.384Z,5.00
2022-08-28T10:18:22.327Z,4.40
2022-08-28T10:19:23.308Z,4.50
2022-08-28T10:20:22.299Z,4.60
2022-08-28T10:21:22.275Z,5.20
2022-08-28T10:22:22.254Z,4.80
2022-08-28T10:23:22.273Z,4.70
2022-08-28T10:24:26.940Z,4.80
2022-08-28T10:25:22.287Z,5.20
2022-08-28T10:26:22.277Z,4.80
2022-08-28T10:27:22.230Z,4.70
2022-08-28T10:28:22.214Z,5.00
2022-08-28T10:29:22.153Z,4.70
2022-08-28T10:30:22.146Z,5.10
2022-08-28T10:31:22.241Z,5.20
2022-08-28T10:32:22.146Z,4.40
2022-08-28T10:33:22.123Z,4.30
2022-08-28T10:34:22.120Z,4.80
2022-08-28T10:35:22.154Z,5.50
2022-08-28T10:36:33.443Z,5.00
2022-08-28T10:37:22.064Z,5.50
2022-08-28T10:38:22.119Z,5.00
2022-08-28T10:39:22.031Z,5.20
2022-08-28T10:40:22.087Z,5.20
2022-08-28T10:41:22.201Z,4.70
2022-08-28T10:42:21.999Z,5.10
2022-08-28T10:43:21.975Z,4.50
2022-08-28T10:44:21.966Z,4.80
2022-08-28T10:45:22.665Z,4.80
2022-08-28T10:46:26.514Z,5.30
2022-08-28T10:47:21.973Z,4.90
2022-08-28T10:48:21.902Z,5.00
2022-08-28T10:49:21.910Z,5.00
2022-08-28T10:50:21.896Z,4.40
2022-08-28T10:51:34.732Z,5.00
2022-08-28T10:52:21.861Z,4.80
2022-08-28T10:53:22.036Z,5.00
2022-08-28T10:54:21.952Z,4.90
2022-08-28T10:55:22.694Z,4.70
2022-08-28T10:56:21.817Z,4.90
2022-08-28T10:57:21.797Z,5.20
2022-08-28T10:58:24.916Z,4.80
2022-08-28T10:59:22.063Z,4.90
2022-08-28T11:00:21.774Z,4.80
2022-08-28T11:01:21.828Z,5.20
2022-08-28T11:02:21.806Z,4.80
2022-08-28T11:03:34.010Z,4.90
2022-08-28T11:04:25.413Z,5.00
2022-08-28T11:05:21.741Z,5.40
2022-08-28T11:06:21.710Z,4.80
2022-08-28T11:07:21.687Z,4.50
2022-08-28T11:08:21.662Z,5.10
2022-08-28T11:09:21.651Z,5.10
2022-08-28T11:10:21.662Z,4.80
2022-08-28T11:11:21.713Z,5.40
2022-08-28T11:12:21.590Z,5.10
2022-08-28T11:13:21.596Z,4.90
2022-08-28T11:14:21.626Z,4.80
2022-08-28T11:15:21.617Z,4.70
2022-08-28T11:16:21.663Z,4.70
2022-08-28T11:17:21.577Z,4.90
2022-08-28T11:18:21.517Z,4.80
2022-08-28T11:19:21.499Z,4.90
2022-08-28T11:20:21.530Z,5.20
2022-08-28T11:21:21.503Z,4.60
2022-08-28T11:22:21.700Z,4.60
2022-08-28T11:23:21.458Z,4.50
2022-08-28T11:24:21.441Z,4.90
2022-08-28T11:25:26.727Z,4.70
2022-08-28T11:26:21.490Z,4.70
2022-08-28T11:27:21.429Z,4.90
2022-08-28T11:28:21.407Z,5.00
2022-08-28T11:29:21.387Z,4.30
2022-08-28T11:30:21.404Z,4.50
2022-08-28T11:31:29.230Z,4.60
2022-08-28T11:32:21.368Z,5.00
2022-08-28T11:33:21.346Z,4.90
2022-08-28T11:34:21.331Z,5.10
2022-08-28T11:35:21.376Z,4.60
2022-08-28T11:36:21.307Z,4.40
2022-08-28T11:37:21.313Z,4.90
2022-08-28T11:38:21.303Z,4.90
2022-08-28T11:39:21.275Z,4.90
2022-08-28T11:40:21.302Z,4.70
2022-08-28T11:41:21.237Z,4.70
2022-08-28T11:42:21.211Z,4.50
2022-08-28T11:43:21.253Z,4.80
2022-08-28T11:44:21.388Z,4.50
2022-08-28T11:45:21.189Z,5.20
2022-08-28T11:46:23.998Z,5.10
2022-08-28T11:47:21.156Z,5.20
2022-08-28T11:48:21.329Z,4.50
2022-08-28T11:49:21.160Z,4.70
2022-08-28T11:50:21.103Z,4.60
2022-08-28T11:51:21.355Z,4.70
2022-08-28T11:52:21.123Z,4.60
2022-08-28T11:53:21.073Z,4.50
2022-08-28T11:54:21.079Z,4.90
2022-08-28T11:55:21.066Z,4.60
2022-08-28T11:56:31.075Z,4.60
2022-08-28T11:57:21.281Z,4.80
2022-08-28T11:58:20.999Z,4.40
2022-08-28T11:59:20.995Z,5.00
2022-08-28T12:00:21.695Z,4.70
2022-08-28T12:01:21.093Z,4.20
2022-08-28T12:02:21.103Z,4.80
2022-08-28T12:03:20.971Z,4.20
2022-08-28T12:04:20.945Z,4.90
2022-08-28T12:05:20.916Z,4.30
2022-08-28T12:06:20.964Z,4.60
2022-08-28T12:07:20.942Z,4.40
2022-08-28T12:08:20.961Z,4.70
2022-08-28T12:09:20.878Z,4.30
2022-08-28T12:10:20.863Z,4.30
2022-08-28T12:11:20.897Z,4.20
2022-08-28T12:12:20.852Z,4.20
2022-08-28T12:13:20.834Z,4.90
2022-08-28T12:14:20.952Z,4.40
2022-08-28T12:15:20.790Z,4.50
2022-08-28T12:16:20.862Z,4.10
2022-08-28T12:17:20.787Z,4.30
2022-08-28T12:18:20.791Z,4.50
2022-08-28T12:19:20.745Z,4.10
2022-08-28T12:20:20.779Z,4.70
2022-08-28T12:21:20.708Z,4.20
2022-08-28T12:22:20.708Z,4.60
2022-08-28T12:23:20.714Z,4.60
2022-08-28T12:24:20.685Z,4.10
2022-08-28T12:25:20.663Z,4.10
2022-08-28T12:26:20.720Z,4.20
2022-08-28T12:27:20.679Z,4.40
2022-08-28T12:28:20.826Z,4.20
2022-08-28T12:29:20.702Z,4.30
2022-08-28T12:30:20.585Z,4.50
2022-08-28T12:31:20.645Z,5.30
2022-08-28T12:32:20.590Z,4.70
2022-08-28T12:33:20.564Z,5.00
2022-08-28T12:34:20.604Z,4.30
2022-08-28T12:35:20.907Z,4.70
2022-08-28T12:36:20.534Z,4.70
2022-08-28T12:37:20.873Z,4.60
2022-08-28T12:38:20.497Z,4.50
2022-08-28T12:39:20.531Z,4.90
2022-08-28T12:40:20.543Z,4.60
2022-08-28T12:41:20.959Z,4.80
2022-08-28T12:42:20.442Z,4.80
2022-08-28T12:43:20.452Z,4.60
2022-08-28T12:44:20.436Z,4.70
2022-08-28T12:45:20.511Z,4.80
2022-08-28T12:46:20.701Z,4.40
2022-08-28T12:47:20.447Z,4.50
2022-08-28T12:48:20.416Z,4.20
2022-08-28T12:49:20.397Z,4.20
2022-08-28T12:50:20.344Z,4.60
2022-08-28T12:51:20.362Z,4.90
2022-08-28T12:52:20.373Z,4.40
2022-08-28T12:53:20.334Z,4.40
2022-08-28T12:54:20.311Z,4.30
2022-08-28T12:55:24.207Z,4.30
2022-08-28T12:56:20.337Z,4.30
2022-08-28T12:57:20.261Z,4.60
2022-08-28T12:58:20.238Z,4.60
2022-08-28T12:59:20.251Z,4.30
2022-08-28T13:00:20.209Z,4.20
2022-08-28T13:01:20.353Z,4.10
2022-08-28T13:02:20.397Z,4.60
2022-08-28T13:03:20.189Z,4.60
2022-08-28T13:04:20.661Z,4.70
2022-08-28T13:05:20.244Z,4.40
2022-08-28T13:06:20.177Z,4.40
2022-08-28T13:07:20.119Z,4.20
2022-08-28T13:08:20.159Z,4.20
2022-08-28T13:09:20.113Z,4.20
2022-08-28T13:10:20.088Z,4.50
2022-08-28T13:11:20.064Z,4.10
2022-08-28T13:12:20.070Z,4.10
2022-08-28T13:13:20.039Z,3.90
2022-08-28T13:14:20.075Z,4.60
2022-08-28T13:15:24.466Z,4.20
2022-08-28T13:16:20.064Z,4.40
2022-08-28T13:17:20.023Z,4.30
2022-08-28T13:18:19.998Z,4.40
2022-08-28T13:19:19.968Z,4.40
2022-08-28T13:20:19.965Z,4.40
2022-08-28T13:21:28.629Z,4.30